createdAt,value
2022-10-24T00:02:35.154Z,49.05
2022-10-24T00:05:10.281Z,46.95
2022-10-24T00:07:49.022Z,48.65
2022-10-24T00:10:29.488Z,52.42
2022-10-24T00:13:19.043Z,50.28
2022-10-24T00:16:10.154Z,48.92
2022-10-24T00:18:50.806Z,50.13
2022-10-24T00:21:27.000Z,46.75
2022-10-24T00:24:07.054Z,55.67
2022-10-24T00:26:42.757Z,54.83
2022-10-24T00:29:29.702Z,54.53
2022-10-24T00:32:15.391Z,54.53
2022-10-24T00:34:53.884Z,52.90
2022-10-24T00:37:35.075Z,49.63
2022-10-24T00:40:11.096Z,52.53
2022-10-24T00:42:59.591Z,50.10
2022-10-24T00:45:57.965Z,47.03
2022-10-24T00:48:56.541Z,53.97
2022-10-24T00:51:41.821Z,53.13
2022-10-24T00:54:25.883Z,56.58
2022-10-24T00:57:08.697Z,52.95
2022-10-24T00:59:50.182Z,57.92
2022-10-24T01:02:25.065Z,57.10
2022-10-24T01:05:05.362Z,54.63
2022-10-24T01:08:10.950Z,56.80
2022-10-24T01:10:56.447Z,53.63
2022-10-24T01:14:04.007Z,54.13
2022-10-24T01:16:58.245Z,51.38
2022-10-24T01:20:23.657Z,51.67
2022-10-24T01:23:40.226Z,49.22
2022-10-24T01:26:59.772Z,48.38
2022-10-24T01:29:48.883Z,50.20
2022-10-24T01:32:35.510Z,48.70
2022-10-24T01:35:42.657Z,48.95
2022-10-24T01:38:42.283Z,55.28
2022-10-24T01:41:23.132Z,49.85
2022-10-24T01:44:28.162Z,56.80
2022-10-24T01:47:19.090Z,59.33
2022-10-24T01:50:09.484Z,54.08
2022-10-24T01:52:48.099Z,56.38
2022-10-24T01:55:22.998Z,54.45
2022-10-24T01:58:04.185Z,58.45
2022-10-24T02:00:47.880Z,58.28
2022-10-24T02:03:32.568Z,57.65
2022-10-24T02:06:22.225Z,62.10
2022-10-24T02:11:49.387Z,60.60
2022-10-24T02:14:36.179Z,64.72
2022-10-24T02:17:11.350Z,59.95
2022-10-24T02:19:54.037Z,64.85
2022-10-24T02:22:34.398Z,61.38
2022-10-24T02:25:11.015Z,59.50
2022-10-24T02:27:54.593Z,61.60
2022-10-24T02:30:37.556Z,64.90
2022-10-24T02:33:19.215Z,63.30
2022-10-24T02:35:56.628Z,70.07
2022-10-24T02:38:41.561Z,68.85
2022-10-24T02:41:28.137Z,79.53
2022-10-24T02:44:14.413Z,77.93
2022-10-24T02:47:06.056Z,82.53
2022-10-24T02:49:49.145Z,81.00
2022-10-24T02:55:08.120Z,79.35
2022-10-24T02:57:47.442Z,81.32
2022-10-24T03:00:22.614Z,84.35
2022-10-24T03:03:03.759Z,91.28
2022-10-24T03:05:57.040Z,93.85
2022-10-24T03:08:37.410Z,89.22
2022-10-24T03:11:18.411Z,92.72
2022-10-24T03:13:55.709Z,81.95
2022-10-24T03:16:36.374Z,91.20
2022-10-24T03:19:20.532Z,93.32
2022-10-24T03:21:58.297Z,83.53
2022-10-24T03:24:43.306Z,90.00
2022-10-24T03:27:17.298Z,86.00
2022-10-24T03:29:52.050Z,82.43
2022-10-24T03:32:34.581Z,79.72
2022-10-24T03:35:18.031Z,79.53
2022-10-24T03:38:09.977Z,86.55
2022-10-24T03:41:08.118Z,77.88
2022-10-24T03:43:59.401Z,78.55
2022-10-24T03:46:44.558Z,80.38
2022-10-24T03:49:28.927Z,86.18
2022-10-24T03:52:11.026Z,83.38
2022-10-24T03:54:52.118Z,86.07
2022-10-24T03:57:38.418Z,97.82
2022-10-24T04:00:20.991Z,85.03
2022-10-24T04:02:54.129Z,86.97
2022-10-24T04:05:32.049Z,79.18
2022-10-24T04:08:06.171Z,86.38
2022-10-24T04:10:36.992Z,82.38
2022-10-24T04:13:17.890Z,83.18
2022-10-24T04:15:58.404Z,84.45
2022-10-24T04:18:36.189Z,88.70
2022-10-24T04:21:16.818Z,86.25
2022-10-24T04:23:59.830Z,86.97
2022-10-24T04:26:39.075Z,84.05
2022-10-24T04:29:26.339Z,81.25
2022-10-24T04:31:59.736Z,80.90
2022-10-24T04:34:40.567Z,83.25
2022-10-24T04:37:14.049Z,77.10
2022-10-24T04:39:53.868Z,88.60
2022-10-24T04:42:31.670Z,92.28
2022-10-24T04:45:11.442Z,86.07
2022-10-24T04:47:44.230Z,93.13
2022-10-24T04:50:24.799Z,76.68
2022-10-24T04:52:59.801Z,85.60
2022-10-24T04:55:43.386Z,87.57
2022-10-24T04:58:37.761Z,105.93
2022-10-24T05:01:21.406Z,87.63
2022-10-24T05:06:45.185Z,94.47
2022-10-24T05:09:34.270Z,91.93
2022-10-24T05:15:05.748Z,88.90
2022-10-24T05:17:38.319Z,89.35
2022-10-24T05:20:14.298Z,95.82
2022-10-24T05:22:54.809Z,92.72
2022-10-24T05:25:44.330Z,85.35
2022-10-24T05:28:33.423Z,89.38
2022-10-24T05:31:08.915Z,90.00
2022-10-24T05:33:43.951Z,91.60
2022-10-24T05:36:24.354Z,91.28
2022-10-24T05:39:09.204Z,94.57
2022-10-24T05:41:55.323Z,92.57
2022-10-24T05:44:38.708Z,87.53
2022-10-24T05:47:35.154Z,92.00
2022-10-24T05:50:13.805Z,84.38
2022-10-24T05:52:49.137Z,96.95
2022-10-24T05:55:32.114Z,86.47
2022-10-24T05:58:14.514Z,79.45
2022-10-24T06:00:54.064Z,91.70
2022-10-24T06:03:42.492Z,83.32
2022-10-24T06:06:24.618Z,88.20
2022-10-24T06:09:08.797Z,86.57
2022-10-24T06:11:52.105Z,84.13
2022-10-24T06:14:27.944Z,90.18
2022-10-24T06:17:02.250Z,76.40
2022-10-24T06:19:43.009Z,78.60
2022-10-24T06:22:27.735Z,91.25
2022-10-24T06:25:05.708Z,68.80
2022-10-24T06:27:51.705Z,78.28
2022-10-24T06:30:31.615Z,72.75
2022-10-24T06:33:09.540Z,72.32
2022-10-24T06:35:58.047Z,75.65
2022-10-24T06:38:38.024Z,73.28
2022-10-24T06:41:22.516Z,88.63
2022-10-24T06:43:58.156Z,72.35
2022-10-24T06:46:32.769Z,81.97
2022-10-24T06:49:11.471Z,79.50
2022-10-24T06:51:55.591Z,86.38
2022-10-24T06:54:33.818Z,79.40
2022-10-24T06:57:11.712Z,85.15
2022-10-24T06:59:54.578Z,79.97
2022-10-24T07:02:40.952Z,75.07
2022-10-24T07:05:26.447Z,70.03
2022-10-24T07:08:15.401Z,74.63
2022-10-24T07:10:50.301Z,70.40
2022-10-24T07:13:25.013Z,64.05
2022-10-24T07:16:04.694Z,66.65
2022-10-24T07:18:48.809Z,60.72
2022-10-24T07:21:24.864Z,71.82
2022-10-24T07:24:09.176Z,59.90
2022-10-24T07:26:48.408Z,62.05
2022-10-24T07:29:28.467Z,57.75
2022-10-24T07:32:02.218Z,65.28
2022-10-24T07:34:42.823Z,56.47
2022-10-24T07:37:26.940Z,48.88
2022-10-24T07:40:12.197Z,56.88
2022-10-24T07:42:50.036Z,52.25
2022-10-24T07:45:28.323Z,51.85
2022-10-24T07:48:08.860Z,55.70
2022-10-24T07:50:51.255Z,48.15
2022-10-24T07:53:32.134Z,49.35
2022-10-24T07:56:11.985Z,46.90
2022-10-24T07:58:58.202Z,53.58
2022-10-24T08:01:32.212Z,55.10
2022-10-24T08:04:10.464Z,67.45
2022-10-24T08:06:52.104Z,86.88
2022-10-24T08:09:39.741Z,75.85
2022-10-24T08:12:22.908Z,72.32
2022-10-24T08:15:01.397Z,70.45
2022-10-24T08:17:44.695Z,72.32
2022-10-24T08:20:21.063Z,72.80
2022-10-24T08:22:56.167Z,70.60
2022-10-24T08:25:37.118Z,75.55
2022-10-24T08:28:12.324Z,75.22
2022-10-24T08:30:53.040Z,84.40
2022-10-24T08:33:33.348Z,79.60
2022-10-24T08:36:31.895Z,81.78
2022-10-24T08:39:12.440Z,88.25
2022-10-24T08:42:07.210Z,87.15
2022-10-24T08:44:47.351Z,76.35
2022-10-24T08:48:03.029Z,81.43
2022-10-24T08:50:43.588Z,80.55
2022-10-24T08:53:23.971Z,85.45
2022-10-24T08:56:05.630Z,84.18
2022-10-24T08:58:52.190Z,73.13
2022-10-24T09:01:35.450Z,75.55
2022-10-24T09:04:19.306Z,82.78
2022-10-24T09:07:01.113Z,81.03
2022-10-24T09:09:51.136Z,76.20
2022-10-24T09:12:38.550Z,73.05
2022-10-24T09:15:26.290Z,77.18
2022-10-24T09:18:04.537Z,72.72
2022-10-24T09:20:41.702Z,85.80
2022-10-24T09:23:24.341Z,89.93
2022-10-24T09:26:06.734Z,81.97
2022-10-24T09:28:46.430Z,89.22
2022-10-24T09:31:30.451Z,92.93
2022-10-24T09:36:48.457Z,97.18
2022-10-24T09:39:34.752Z,96.43
2022-10-24T09:42:20.467Z,89.28
2022-10-24T09:45:02.881Z,99.68
2022-10-24T09:47:46.784Z,111.70
2022-10-24T09:50:33.524Z,91.47
2022-10-24T09:55:50.699Z,95.88
2022-10-24T09:58:34.548Z,78.03
2022-10-24T10:01:29.040Z,95.55
2022-10-24T10:04:17.209Z,92.32
2022-10-24T10:06:51.947Z,107.20
2022-10-24T10:09:56.506Z,89.00
2022-10-24T10:12:44.151Z,93.03
2022-10-24T10:15:40.089Z,91.70
2022-10-24T10:18:35.650Z,107.38
2022-10-24T10:21:59.741Z,95.70
2022-10-24T10:24:49.574Z,95.50
2022-10-24T10:27:44.263Z,97.00
2022-10-24T10:30:29.498Z,108.88
2022-10-24T10:33:57.170Z,98.50
2022-10-24T10:36:49.427Z,101.15
2022-10-24T10:39:40.782Z,96.13
2022-10-24T10:42:27.043Z,105.80
2022-10-24T10:47:58.779Z,91.93
2022-10-24T10:50:41.763Z,100.78
2022-10-24T10:53:35.484Z,94.30
2022-10-24T10:56:36.767Z,107.57
2022-10-24T10:59:29.580Z,92.80
2022-10-24T11:02:21.923Z,105.38
2022-10-24T11:05:35.199Z,98.38
2022-10-24T11:08:42.600Z,97.05
2022-10-24T11:11:27.790Z,96.13
2022-10-24T11:14:08.981Z,98.97
2022-10-24T11:16:47.960Z,102.70
2022-10-24T11:20:05.873Z,107.68
2022-10-24T11:22:43.397Z,93.03
2022-10-24T11:25:37.269Z,101.93
2022-10-24T11:28:31.666Z,88.63
2022-10-24T11:31:29.844Z,80.53
2022-10-24T11:34:22.476Z,87.82
2022-10-24T11:37:29.548Z,70.25
2022-10-24T11:40:08.915Z,82.80
2022-10-24T11:43:13.252Z,82.30
2022-10-24T11:46:15.022Z,76.03
2022-10-24T11:49:19.794Z,91.50
2022-10-24T11:52:19.992Z,82.35
2022-10-24T11:55:14.710Z,77.75
2022-10-24T11:57:59.431Z,83.38
2022-10-24T12:01:03.406Z,87.95
2022-10-24T12:04:09.937Z,75.93
2022-10-24T12:07:21.181Z,88.18
2022-10-24T12:10:15.477Z,73.03
2022-10-24T12:16:01.491Z,76.25
2022-10-24T12:18:42.471Z,81.68
2022-10-24T12:21:19.310Z,79.93
2022-10-24T12:24:02.091Z,83.03
2022-10-24T12:26:43.499Z,69.22
2022-10-24T12:29:28.447Z,73.95
2022-10-24T12:32:20.188Z,81.15
2022-10-24T12:35:29.454Z,79.43
2022-10-24T12:38:27.442Z,71.63
2022-10-24T12:41:09.720Z,71.32
2022-10-24T12:43:54.061Z,62.90
2022-10-24T12:46:32.469Z,65.22
2022-10-24T12:49:26.779Z,71.80
2022-10-24T12:52:04.917Z,71.13
2022-10-24T12:54:51.113Z,75.25
2022-10-24T12:57:28.777Z,86.85
2022-10-24T13:00:07.907Z,76.13
2022-10-24T13:03:13.605Z,87.65
2022-10-24T13:06:06.433Z,83.50
2022-10-24T13:09:09.097Z,96.18
2022-10-24T13:12:03.089Z,91.38
2022-10-24T13:15:00.648Z,84.05
2022-10-24T13:17:59.831Z,83.18
2022-10-24T13:20:41.964Z,83.43
2022-10-24T13:23:34.560Z,81.25
2022-10-24T13:26:08.868Z,93.78
2022-10-24T13:28:47.143Z,81.82
2022-10-24T13:31:48.203Z,92.07
2022-10-24T13:34:43.296Z,83.25
2022-10-24T13:37:36.730Z,80.55
2022-10-24T13:40:33.302Z,98.35
2022-10-24T13:43:24.249Z,100.95
2022-10-24T13:46:12.125Z,78.85
2022-10-24T13:48:56.811Z,80.85
2022-10-24T13:51:43.404Z,74.10
2022-10-24T13:54:28.381Z,80.32
2022-10-24T13:57:24.185Z,92.95
2022-10-24T14:00:00.490Z,73.75
2022-10-24T14:02:43.436Z,84.63
2022-10-24T14:05:38.928Z,83.95
2022-10-24T14:08:28.667Z,78.45
2022-10-24T14:11:08.705Z,74.97
2022-10-24T14:13:53.355Z,84.47
2022-10-24T14:16:41.293Z,65.97
2022-10-24T14:19:28.293Z,78.65
2022-10-24T14:22:19.136Z,79.55
2022-10-24T14:24:54.914Z,75.95
2022-10-24T14:27:35.339Z,73.65
2022-10-24T14:30:17.404Z,79.35
2022-10-24T14:33:09.795Z,75.60
2022-10-24T14:35:47.085Z,80.43
2022-10-24T14:38:24.981Z,75.90
2022-10-24T14:41:09.440Z,81.07
2022-10-24T14:43:45.746Z,81.20
2022-10-24T14:46:26.516Z,83.63
2022-10-24T14:49:27.168Z,77.22
2022-10-24T14:52:34.228Z,86.47
2022-10-24T14:55:23.474Z,72.47
2022-10-24T14:58:14.715Z,72.47
2022-10-24T15:00:52.649Z,73.28
2022-10-24T15:03:54.162Z,70.20
2022-10-24T15:06:42.090Z,69.80
2022-10-24T15:09:23.699Z,69.03
2022-10-24T15:12:10.491Z,71.57
2022-10-24T15:14:51.853Z,79.10
2022-10-24T15:17:32.697Z,79.60
2022-10-24T15:20:18.338Z,68.47
2022-10-24T15:23:09.789Z,88.65
2022-10-24T15:25:51.119Z,74.57
2022-10-24T15:28:40.225Z,70.80
2022-10-24T15:31:27.515Z,80.68
2022-10-24T15:34:11.793Z,68.15
2022-10-24T15:36:50.251Z,65.38
2022-10-24T15:39:29.205Z,80.78
2022-10-24T15:42:20.124Z,79.82
2022-10-24T15:44:57.436Z,76.05
2022-10-24T15:47:35.003Z,76.00
2022-10-24T15:50:15.387Z,69.45
2022-10-24T15:53:06.941Z,73.03
2022-10-24T15:55:47.828Z,74.43
2022-10-24T15:58:28.962Z,72.13
2022-10-24T16:01:13.347Z,83.82
2022-10-24T16:03:51.428Z,75.75
2022-10-24T16:06:35.995Z,82.30
2022-10-24T16:09:27.506Z,85.13
2022-10-24T16:12:03.918Z,83.03
2022-10-24T16:14:40.167Z,105.80
2022-10-24T16:17:24.468Z,86.93
2022-10-24T16:20:21.256Z,100.75
2022-10-24T16:22:59.332Z,98.28
2022-10-24T16:25:37.899Z,90.80
2022-10-24T16:28:26.428Z,84.95
2022-10-24T16:31:06.829Z,88.13
2022-10-24T16:33:42.653Z,84.97
2022-10-24T16:36:25.523Z,78.35
2022-10-24T16:39:12.014Z,93.90
2022-10-24T16:41:50.940Z,99.93
2022-10-24T16:44:34.043Z,90.35
2022-10-24T16:47:14.955Z,93.05
2022-10-24T16:50:01.029Z,98.68
2022-10-24T16:52:39.561Z,85.03
2022-10-24T16:55:14.262Z,85.38
2022-10-24T16:58:00.595Z,89.13
2022-10-24T17:00:38.953Z,82.40
2022-10-24T17:03:13.790Z,90.05
2022-10-24T17:06:03.807Z,84.18
2022-10-24T17:08:44.313Z,93.53
2022-10-24T17:11:45.711Z,81.82
2022-10-24T17:14:33.561Z,88.85
2022-10-24T17:17:15.943Z,85.20
2022-10-24T17:19:54.057Z,84.55
2022-10-24T17:22:26.786Z,99.20
2022-10-24T17:25:09.432Z,96.60
2022-10-24T17:28:00.221Z,91.38
2022-10-24T17:30:37.897Z,98.93
2022-10-24T17:33:21.432Z,96.75
2022-10-24T17:36:01.934Z,87.20
2022-10-24T17:39:05.232Z,101.05
2022-10-24T17:41:45.042Z,97.55
2022-10-24T17:44:24.153Z,100.57
2022-10-24T17:47:06.001Z,78.47
2022-10-24T17:49:41.370Z,100.53
2022-10-24T17:52:27.229Z,91.75
2022-10-24T17:55:02.884Z,84.90
2022-10-24T17:57:39.919Z,83.00
2022-10-24T18:00:13.530Z,100.38
2022-10-24T18:05:26.233Z,78.88
2022-10-24T18:08:09.073Z,85.20
2022-10-24T18:10:50.276Z,87.85
2022-10-24T18:13:33.639Z,90.35
2022-10-24T18:16:12.003Z,81.35
2022-10-24T18:18:50.514Z,77.78
2022-10-24T18:21:29.517Z,89.47
2022-10-24T18:24:10.674Z,87.57
2022-10-24T18:26:49.711Z,87.32
2022-10-24T18:29:25.086Z,80.22
2022-10-24T18:32:08.212Z,78.38
2022-10-24T18:35:02.805Z,79.45
2022-10-24T18:37:37.775Z,85.07
2022-10-24T18:40:11.856Z,102.32
2022-10-24T18:43:06.054Z,86.60
2022-10-24T18:45:41.796Z,91.43
2022-10-24T18:48:16.802Z,91.35
2022-10-24T18:50:56.606Z,111.72
2022-10-24T18:53:36.305Z,106.35
2022-10-24T18:56:21.181Z,111.82
2022-10-24T18:58:57.961Z,110.25
2022-10-24T19:01:55.019Z,96.32
2022-10-24T19:04:37.229Z,103.78
2022-10-24T19:07:12.306Z,95.78
2022-10-24T19:09:47.372Z,96.32
2022-10-24T19:12:22.337Z,93.18
2022-10-24T19:15:04.231Z,104.90
2022-10-24T19:17:46.023Z,104.57
2022-10-24T19:20:26.981Z,115.93
2022-10-24T19:25:50.142Z,103.60
2022-10-24T19:28:20.868Z,117.47
2022-10-24T19:31:14.929Z,113.25
2022-10-24T19:33:50.014Z,108.63
2022-10-24T19:36:28.402Z,101.90
2022-10-24T19:39:12.380Z,93.38
2022-10-24T19:44:25.630Z,106.72
2022-10-24T19:47:03.501Z,101.88
2022-10-24T19:49:47.806Z,100.38
2022-10-24T19:52:22.510Z,92.43
2022-10-24T19:54:57.877Z,95.03
2022-10-24T19:57:45.488Z,96.38
2022-10-24T20:00:26.167Z,102.30
2022-10-24T20:03:00.970Z,100.03
2022-10-24T20:05:37.070Z,90.50
2022-10-24T20:08:15.147Z,100.40
2022-10-24T20:10:57.658Z,104.82
2022-10-24T20:13:33.684Z,89.60
2022-10-24T20:16:25.285Z,87.60
2022-10-24T20:19:06.452Z,88.40
2022-10-24T20:21:45.316Z,95.50
2022-10-24T20:24:17.897Z,110.13
2022-10-24T20:27:02.620Z,99.35
2022-10-24T20:29:37.982Z,144.65
2022-10-24T20:32:17.363Z,129.13
2022-10-24T20:34:56.145Z,117.53
2022-10-24T20:37:33.501Z,121.30
2022-10-24T20:40:18.027Z,125.30
2022-10-24T20:43:10.271Z,133.98
2022-10-24T20:45:59.885Z,126.15
2022-10-24T20:48:36.327Z,134.73
2022-10-24T20:51:17.587Z,132.73
2022-10-24T20:53:55.436Z,150.32
2022-10-24T20:56:30.999Z,136.18
2022-10-24T20:59:11.553Z,130.82
2022-10-24T21:01:47.262Z,135.80
2022-10-24T21:04:25.581Z,132.65
2022-10-24T21:07:08.467Z,130.88
2022-10-24T21:09:51.349Z,128.40
2022-10-24T21:12:34.255Z,124.13
2022-10-24T21:15:35.328Z,140.77
2022-10-24T21:18:13.518Z,126.03
2022-10-24T21:20:51.438Z,143.55
2022-10-24T21:23:29.322Z,134.25
2022-10-24T21:26:14.197Z,126.25
2022-10-24T21:29:08.933Z,123.75
2022-10-24T21:32:05.758Z,135.68
2022-10-24T21:34:43.977Z,144.45
2022-10-24T21:37:21.856Z,140.15
2022-10-24T21:40:05.376Z,131.23
2022-10-24T21:42:43.515Z,153.65
2022-10-24T21:45:25.020Z,139.00
2022-10-24T21:48:00.011Z,130.95
2022-10-24T21:53:26.540Z,132.10
2022-10-24T21:56:21.377Z,138.00
2022-10-24T21:59:05.828Z,132.40
2022-10-24T22:01:42.296Z,138.85
2022-10-24T22:04:30.477Z,145.00
2022-10-24T22:07:10.286Z,152.45
2022-10-24T22:09:45.418Z,150.65
2022-10-24T22:12:21.022Z,143.98
2022-10-24T22:14:56.234Z,162.85
2022-10-24T22:17:30.845Z,142.90
2022-10-24T22:20:02.712Z,175.85
2022-10-24T22:22:39.977Z,162.07
2022-10-24T22:25:15.776Z,161.73
2022-10-24T22:27:59.474Z,149.50
2022-10-24T22:30:51.176Z,162.00
2022-10-24T22:33:41.518Z,152.43
2022-10-24T22:36:27.057Z,161.25
2022-10-24T22:39:07.832Z,138.48
2022-10-24T22:41:54.992Z,137.75
2022-10-24T22:44:31.852Z,141.52
2022-10-24T22:47:27.576Z,142.73
2022-10-24T22:50:10.201Z,161.07
2022-10-24T22:52:58.407Z,134.98
2022-10-24T22:55:49.796Z,148.43
2022-10-24T22:58:24.722Z,145.00
2022-10-24T23:01:00.977Z,143.13
2022-10-24T23:03:48.463Z,137.13
2022-10-24T23:06:37.633Z,145.82
2022-10-24T23:09:17.042Z,123.97
2022-10-24T23:11:57.636Z,138.68
2022-10-24T23:14:39.467Z,135.15
2022-10-24T23:17:19.991Z,129.45
2022-10-24T23:19:58.659Z,131.13
2022-10-24T23:22:37.108Z,130.93
2022-10-24T23:25:18.360Z,131.23
2022-10-24T23:28:12.274Z,133.32
2022-10-24T23:30:49.916Z,130.57
2022-10-24T23:33:36.316Z,119.70
2022-10-24T23:36:25.207Z,130.88
2022-10-24T23:39:09.476Z,138.32
2022-10-24T23:41:50.295Z,118.93
2022-10-24T23:44:28.829Z,124.40
2022-10-24T23:47:27.028Z,130.68
2022-10-24T23:50:17.597Z,133.20
2022-10-24T23:53:06.340Z,122.82
2022-10-24T23:55:43.886Z,130.43
2022-10-24T23:58:23.741Z,111.63
